Time;durP1;ratioP1;P1;durP2;ratioP2;P2;SDS_P1;SDS_P2;PMS_P1;PMS_P2;Temp;Humidity;BMP_temperature;BMP_pressure;BME280_temperature;BME280_humidity;BME280_pressure;Samples;Min_cycle;Max_cycle;Signal;HPM_P1;HPM_P2
2023/08/17 00:01:34;;;;;;;23.95;3.78;;;;;;;;;;5051890;28;20446;-34
2023/08/17 00:04:01;;;;;;;21.85;3.75;;;;;;;;;;5052481;28;20479;-34
2023/08/17 00:06:28;;;;;;;25.42;4.03;;;;;;;;;;5051916;28;20032;-34
2023/08/17 00:08:55;;;;;;;16.15;3.63;;;;;;;;;;5052399;28;20107;-34
2023/08/17 00:11:22;;;;;;;32.00;4.45;;;;;;;;;;5065682;28;20122;-32
2023/08/17 00:13:49;;;;;;;18.48;4.72;;;;;;;;;;5065672;28;20498;-35
2023/08/17 00:16:16;;;;;;;33.22;5.03;;;;;;;;;;5060875;28;20033;-41
2023/08/17 00:18:43;;;;;;;29.85;5.45;;;;;;;;;;5051636;28;20143;-35
2023/08/17 00:21:11;;;;;;;24.75;4.95;;;;;;;;;;5065231;28;20399;-37
2023/08/17 00:23:38;;;;;;;27.63;4.97;;;;;;;;;;5061662;28;20312;-36
2023/08/17 00:26:05;;;;;;;26.98;5.78;;;;;;;;;;5055074;28;20032;-34
2023/08/17 00:28:32;;;;;;;25.88;5.53;;;;;;;;;;5062225;28;20029;-35
2023/08/17 00:31:00;;;;;;;24.92;5.63;;;;;;;;;;5055743;28;20033;-35
2023/08/17 00:33:27;;;;;;;27.88;5.82;;;;;;;;;;5058529;28;20542;-36
2023/08/17 00:35:54;;;;;;;30.48;5.93;;;;;;;;;;5064829;28;20047;-36
2023/08/17 00:38:21;;;;;;;22.75;6.03;;;;;;;;;;5057920;28;20041;-36
2023/08/17 00:40:49;;;;;;;31.20;5.70;;;;;;;;;;5053357;28;20055;-34
2023/08/17 00:43:16;;;;;;;25.92;5.60;;;;;;;;;;5069883;28;20483;-35
2023/08/17 00:45:44;;;;;;;25.52;6.45;;;;;;;;;;5055954;28;20082;-36
2023/08/17 00:48:11;;;;;;;25.23;6.03;;;;;;;;;;5067715;28;20055;-33
2023/08/17 00:50:39;;;;;;;26.23;5.40;;;;;;;;;;5057025;28;20039;-36
2023/08/17 00:53:06;;;;;;;29.23;6.53;;;;;;;;;;5063636;28;20093;-35
2023/08/17 00:55:34;;;;;;;33.47;6.50;;;;;;;;;;5054011;28;20032;-35
2023/08/17 00:58:01;;;;;;;38.97;6.43;;;;;;;;;;5060974;28;20082;-36
2023/08/17 01:00:28;;;;;;;27.42;6.28;;;;;;;;;;5056844;28;20039;-36
2023/08/17 01:02:56;;;;;;;44.22;7.38;;;;;;;;;;5058359;28;20032;-36
2023/08/17 01:05:24;;;;;;;50.83;7.43;;;;;;;;;;5056318;28;20111;-36
2023/08/17 01:07:51;;;;;;;29.10;6.72;;;;;;;;;;5064629;28;20078;-35
2023/08/17 01:10:18;;;;;;;54.65;8.20;;;;;;;;;;5068272;28;20512;-35
2023/08/17 01:12:45;;;;;;;54.75;7.50;;;;;;;;;;5053076;28;20025;-36
2023/08/17 01:15:15;;;;;;;48.97;7.40;;;;;;;;;;5058993;28;20037;-36
2023/08/17 01:17:45;;;;;;;33.45;7.30;;;;;;;;;;5064334;28;20033;-35
2023/08/17 01:20:15;;;;;;;35.70;7.05;;;;;;;;;;5062697;28;20024;-36
2023/08/17 01:22:43;;;;;;;35.72;6.97;;;;;;;;;;5071096;28;20056;-36
2023/08/17 01:25:10;;;;;;;43.15;7.47;;;;;;;;;;5066230;28;20024;-36
2023/08/17 01:27:44;;;;;;;35.67;6.97;;;;;;;;;;5059187;28;20082;-36
2023/08/17 01:30:12;;;;;;;38.03;7.38;;;;;;;;;;5062598;28;20510;-36
2023/08/17 01:32:47;;;;;;;33.55;6.68;;;;;;;;;;5056578;28;20033;-36
2023/08/17 01:35:29;;;;;;;37.00;6.97;;;;;;;;;;5057520;28;20028;-38
2023/08/17 01:38:05;;;;;;;31.27;6.53;;;;;;;;;;5061353;28;20531;-37
2023/08/17 01:40:34;;;;;;;30.27;6.05;;;;;;;;;;5064084;28;20037;-37
2023/08/17 01:43:02;;;;;;;35.55;6.05;;;;;;;;;;5051078;28;20095;-37
2023/08/17 01:45:30;;;;;;;36.22;6.53;;;;;;;;;;5063808;28;20104;-35
2023/08/17 01:47:57;;;;;;;28.25;6.38;;;;;;;;;;5063999;28;20025;-36
2023/08/17 01:50:24;;;;;;;30.00;5.65;;;;;;;;;;5059200;28;20067;-35
2023/08/17 01:52:51;;;;;;;27.20;5.63;;;;;;;;;;5057973;28;20029;-35
2023/08/17 01:55:18;;;;;;;28.10;5.60;;;;;;;;;;5050888;28;20052;-35
2023/08/17 01:57:45;;;;;;;28.45;6.15;;;;;;;;;;5062900;28;20040;-37
2023/08/17 02:00:13;;;;;;;36.03;5.95;;;;;;;;;;5057532;28;20549;-34
2023/08/17 02:02:40;;;;;;;33.85;6.07;;;;;;;;;;5057424;28;20364;-34
2023/08/17 02:05:08;;;;;;;26.10;5.50;;;;;;;;;;5070584;28;20040;-34
2023/08/17 02:07:35;;;;;;;27.45;5.80;;;;;;;;;;5066042;28;20497;-35
2023/08/17 02:10:02;;;;;;;23.10;5.00;;;;;;;;;;5060349;28;20029;-35
2023/08/17 02:12:29;;;;;;;28.77;5.55;;;;;;;;;;5063822;28;20091;-34
2023/08/17 02:14:56;;;;;;;27.95;5.55;;;;;;;;;;5061561;28;20447;-34
2023/08/17 02:17:23;;;;;;;25.00;5.43;;;;;;;;;;5060321;28;20032;-34
2023/08/17 02:19:50;;;;;;;18.52;4.65;;;;;;;;;;5058876;28;20025;-35
2023/08/17 02:22:17;;;;;;;23.35;4.75;;;;;;;;;;5059733;28;20063;-35
2023/08/17 02:24:46;;;;;;;22.58;4.80;;;;;;;;;;5057161;28;20478;-35
2023/08/17 02:27:13;;;;;;;23.77;5.30;;;;;;;;;;5060300;28;20029;-34
2023/08/17 02:29:40;;;;;;;21.58;5.70;;;;;;;;;;5063665;28;20287;-34
2023/08/17 02:32:07;;;;;;;22.05;5.53;;;;;;;;;;5065428;28;20024;-35
2023/08/17 02:34:34;;;;;;;22.50;5.13;;;;;;;;;;5061010;28;20135;-34
2023/08/17 02:37:01;;;;;;;23.13;5.15;;;;;;;;;;5062230;28;20056;-34
2023/08/17 02:39:28;;;;;;;20.63;4.75;;;;;;;;;;5067505;28;20032;-35
2023/08/17 02:41:55;;;;;;;21.83;4.82;;;;;;;;;;5066921;28;20436;-34
2023/08/17 02:44:22;;;;;;;17.75;4.53;;;;;;;;;;5063507;28;20035;-35
2023/08/17 02:46:49;;;;;;;20.63;4.43;;;;;;;;;;5063295;28;20111;-36
2023/08/17 02:49:16;;;;;;;22.85;4.90;;;;;;;;;;5062122;28;20035;-34
2023/08/17 02:51:43;;;;;;;16.33;4.80;;;;;;;;;;5063387;28;20021;-35
2023/08/17 02:54:10;;;;;;;17.25;4.50;;;;;;;;;;5064397;28;20032;-36
2023/08/17 02:56:37;;;;;;;16.50;4.20;;;;;;;;;;5060008;28;20095;-34
2023/08/17 02:59:04;;;;;;;18.92;4.45;;;;;;;;;;5064135;28;20067;-34
2023/08/17 03:01:32;;;;;;;16.67;4.40;;;;;;;;;;5063972;28;20052;-34
2023/08/17 03:03:59;;;;;;;17.58;4.18;;;;;;;;;;5062402;28;20036;-35
2023/08/17 03:06:26;;;;;;;13.55;3.92;;;;;;;;;;5068876;28;20028;-34
2023/08/17 03:08:53;;;;;;;18.88;4.35;;;;;;;;;;5073971;28;20618;-36
2023/08/17 03:11:21;;;;;;;15.48;4.38;;;;;;;;;;5072931;28;20494;-36
2023/08/17 03:13:48;;;;;;;14.25;3.70;;;;;;;;;;5072983;28;20059;-36
2023/08/17 03:16:18;;;;;;;18.60;4.53;;;;;;;;;;5074209;28;20079;-36
2023/08/17 03:18:45;;;;;;;14.07;4.03;;;;;;;;;;5074128;28;20052;-35
2023/08/17 03:21:13;;;;;;;13.75;3.53;;;;;;;;;;5074133;28;20020;-36
2023/08/17 03:23:41;;;;;;;13.50;3.78;;;;;;;;;;5074080;28;20111;-36
2023/08/17 03:26:08;;;;;;;13.15;3.70;;;;;;;;;;5073994;28;20028;-35
2023/08/17 03:28:35;;;;;;;15.73;3.85;;;;;;;;;;5074000;28;20119;-36
2023/08/17 03:31:03;;;;;;;12.75;3.95;;;;;;;;;;5073929;28;20040;-36
2023/08/17 03:33:30;;;;;;;11.80;3.53;;;;;;;;;;5073977;28;20314;-36
2023/08/17 03:35:57;;;;;;;14.50;3.92;;;;;;;;;;5073585;28;20098;-36
2023/08/17 03:38:24;;;;;;;12.52;4.00;;;;;;;;;;5073756;28;20045;-35
2023/08/17 03:40:52;;;;;;;11.00;3.47;;;;;;;;;;5073776;28;20055;-35
2023/08/17 03:43:19;;;;;;;12.63;4.13;;;;;;;;;;5071802;28;20064;-35
2023/08/17 03:45:46;;;;;;;10.68;3.78;;;;;;;;;;5073668;28;20025;-36
2023/08/17 03:48:13;;;;;;;10.45;3.90;;;;;;;;;;5073479;28;20419;-35
2023/08/17 03:50:40;;;;;;;12.43;3.78;;;;;;;;;;5073725;28;20100;-35
2023/08/17 03:53:07;;;;;;;12.75;3.90;;;;;;;;;;5073600;28;20024;-36
2023/08/17 03:55:34;;;;;;;11.15;3.35;;;;;;;;;;5073577;28;20041;-35
2023/08/17 03:58:01;;;;;;;10.90;3.45;;;;;;;;;;5073327;28;20124;-35
2023/08/17 04:00:28;;;;;;;9.57;3.50;;;;;;;;;;5073466;28;20031;-35
2023/08/17 04:02:55;;;;;;;12.70;3.67;;;;;;;;;;5073404;28;20101;-36
2023/08/17 04:05:22;;;;;;;11.85;3.78;;;;;;;;;;5073370;28;20028;-36
2023/08/17 04:07:49;;;;;;;14.77;3.83;;;;;;;;;;5073206;28;20238;-35
2023/08/17 04:10:16;;;;;;;13.70;3.67;;;;;;;;;;5073312;28;20024;-35
2023/08/17 04:12:43;;;;;;;12.10;3.35;;;;;;;;;;5073219;28;20036;-35
2023/08/17 04:15:10;;;;;;;12.70;3.53;;;;;;;;;;5073020;28;20040;-35
2023/08/17 04:17:37;;;;;;;9.85;3.30;;;;;;;;;;5072979;28;20040;-35
2023/08/17 04:20:05;;;;;;;12.15;3.63;;;;;;;;;;5073080;28;20031;-35
2023/08/17 04:22:32;;;;;;;12.95;4.00;;;;;;;;;;5072985;28;20024;-35
2023/08/17 04:24:59;;;;;;;11.50;3.15;;;;;;;;;;5072993;28;20037;-35
2023/08/17 04:27:26;;;;;;;8.18;3.40;;;;;;;;;;5072841;28;20036;-35
2023/08/17 04:29:53;;;;;;;10.48;3.55;;;;;;;;;;5072855;28;20479;-35
2023/08/17 04:32:20;;;;;;;9.93;3.83;;;;;;;;;;5072844;28;20035;-35
2023/08/17 04:34:48;;;;;;;11.80;3.92;;;;;;;;;;5072784;28;20033;-35
2023/08/17 04:37:15;;;;;;;9.48;3.60;;;;;;;;;;5072372;28;20052;-35
2023/08/17 04:39:43;;;;;;;10.10;3.90;;;;;;;;;;5072752;28;20475;-35
2023/08/17 04:42:10;;;;;;;10.75;3.60;;;;;;;;;;5072595;28;20028;-35
2023/08/17 04:44:37;;;;;;;10.80;3.72;;;;;;;;;;5072680;28;20052;-35
2023/08/17 04:47:05;;;;;;;9.70;3.50;;;;;;;;;;5072455;28;20107;-35
2023/08/17 04:49:32;;;;;;;9.48;3.58;;;;;;;;;;5072797;28;20553;-35
2023/08/17 04:51:59;;;;;;;10.77;3.78;;;;;;;;;;5072487;28;20363;-35
2023/08/17 04:54:26;;;;;;;10.60;3.35;;;;;;;;;;5071477;28;20025;-35
2023/08/17 04:56:53;;;;;;;11.18;4.05;;;;;;;;;;5072277;28;20036;-35
2023/08/17 04:59:20;;;;;;;11.07;3.42;;;;;;;;;;5072304;28;20021;-35
2023/08/17 05:01:48;;;;;;;10.48;4.00;;;;;;;;;;5072303;28;20028;-35
2023/08/17 05:04:15;;;;;;;9.80;3.78;;;;;;;;;;5072368;28;20028;-35
2023/08/17 05:06:42;;;;;;;10.02;3.75;;;;;;;;;;5071897;28;20033;-34
2023/08/17 05:09:10;;;;;;;11.57;3.78;;;;;;;;;;5072187;28;20029;-34
2023/08/17 05:11:37;;;;;;;11.52;3.45;;;;;;;;;;5072139;28;20024;-34
2023/08/17 05:14:04;;;;;;;10.20;3.60;;;;;;;;;;5072076;28;20028;-34
2023/08/17 05:16:31;;;;;;;14.40;3.67;;;;;;;;;;5071950;28;20051;-34
2023/08/17 05:18:59;;;;;;;11.05;3.45;;;;;;;;;;5071894;28;20052;-34
2023/08/17 05:21:26;;;;;;;12.00;3.90;;;;;;;;;;5071981;28;20099;-34
2023/08/17 05:23:54;;;;;;;9.70;3.60;;;;;;;;;;5071922;28;20036;-34
2023/08/17 05:26:21;;;;;;;11.50;3.63;;;;;;;;;;5071770;28;20068;-34
2023/08/17 05:28:48;;;;;;;10.20;3.50;;;;;;;;;;5071740;28;20033;-34
2023/08/17 05:31:15;;;;;;;11.02;3.42;;;;;;;;;;5071746;28;20028;-34
2023/08/17 05:33:42;;;;;;;13.18;3.80;;;;;;;;;;5071714;28;20029;-34
2023/08/17 05:36:09;;;;;;;8.40;3.28;;;;;;;;;;5071571;28;20436;-34
2023/08/17 05:38:36;;;;;;;9.07;3.40;;;;;;;;;;5071743;28;20048;-34
2023/08/17 05:41:03;;;;;;;9.07;3.03;;;;;;;;;;5071670;28;20482;-34
2023/08/17 05:43:30;;;;;;;9.38;3.13;;;;;;;;;;5071711;28;20025;-34
2023/08/17 05:46:00;;;;;;;10.43;3.33;;;;;;;;;;5071637;28;20056;-34
2023/08/17 05:48:27;;;;;;;10.90;3.15;;;;;;;;;;5071697;28;20044;-34
2023/08/17 05:50:56;;;;;;;7.43;3.17;;;;;;;;;;5071551;28;20037;-34
2023/08/17 05:53:23;;;;;;;9.88;3.22;;;;;;;;;;5071561;28;20029;-34
2023/08/17 05:55:50;;;;;;;10.48;3.45;;;;;;;;;;5071523;28;20025;-34
2023/08/17 05:58:17;;;;;;;10.13;3.20;;;;;;;;;;5071483;28;20037;-34
2023/08/17 06:00:44;;;;;;;12.15;3.65;;;;;;;;;;5069169;28;20060;-36
2023/08/17 06:03:12;;;;;;;12.30;3.28;;;;;;;;;;5071308;28;20418;-35
2023/08/17 06:05:39;;;;;;;8.65;3.35;;;;;;;;;;5073249;28;20058;-35
2023/08/17 06:08:06;;;;;;;10.30;3.47;;;;;;;;;;5075650;28;20107;-35
2023/08/17 06:10:33;;;;;;;11.80;3.30;;;;;;;;;;5075552;28;20024;-35
2023/08/17 06:13:00;;;;;;;12.80;3.20;;;;;;;;;;5075528;28;20261;-35
2023/08/17 06:15:27;;;;;;;9.82;3.28;;;;;;;;;;5075515;28;20039;-35
2023/08/17 06:17:54;;;;;;;9.20;3.50;;;;;;;;;;5075224;28;20093;-35
2023/08/17 06:20:21;;;;;;;9.80;3.13;;;;;;;;;;5075343;28;20028;-35
2023/08/17 06:22:51;;;;;;;10.57;3.40;;;;;;;;;;5073988;28;20398;-35
2023/08/17 06:25:18;;;;;;;8.35;3.05;;;;;;;;;;5075331;28;20502;-35
2023/08/17 06:27:45;;;;;;;8.07;3.00;;;;;;;;;;5075134;28;20029;-35
2023/08/17 06:30:13;;;;;;;8.70;2.90;;;;;;;;;;5075214;28;20028;-35
2023/08/17 06:32:40;;;;;;;10.25;3.45;;;;;;;;;;5075232;28;20032;-35
2023/08/17 06:35:08;;;;;;;11.75;3.70;;;;;;;;;;5075020;28;20070;-35
2023/08/17 06:37:35;;;;;;;8.65;3.20;;;;;;;;;;5073644;28;20436;-35
2023/08/17 06:40:02;;;;;;;11.30;3.33;;;;;;;;;;5075026;28;20033;-35
2023/08/17 06:42:29;;;;;;;8.32;3.22;;;;;;;;;;5075049;28;20061;-35
2023/08/17 06:44:56;;;;;;;7.55;3.10;;;;;;;;;;5074925;28;20050;-35
2023/08/17 06:47:24;;;;;;;7.90;2.88;;;;;;;;;;5074745;28;20028;-35
2023/08/17 06:49:51;;;;;;;9.07;3.28;;;;;;;;;;5074793;28;20386;-35
2023/08/17 06:52:18;;;;;;;8.10;3.10;;;;;;;;;;5074813;28;20052;-36
2023/08/17 06:54:45;;;;;;;7.35;3.00;;;;;;;;;;5074777;28;20031;-35
2023/08/17 06:57:12;;;;;;;9.20;3.70;;;;;;;;;;5074528;28;20068;-35
2023/08/17 06:59:39;;;;;;;6.53;2.95;;;;;;;;;;5074592;28;20397;-35
2023/08/17 07:02:06;;;;;;;7.97;3.20;;;;;;;;;;5074537;28;20548;-36
2023/08/17 07:04:33;;;;;;;7.30;3.08;;;;;;;;;;5074599;28;20036;-35
2023/08/17 07:07:00;;;;;;;10.43;3.30;;;;;;;;;;5074424;28;20463;-35
2023/08/17 07:09:28;;;;;;;9.10;3.38;;;;;;;;;;5074271;28;20492;-34
2023/08/17 07:11:55;;;;;;;9.10;3.00;;;;;;;;;;5074278;28;20044;-34
2023/08/17 07:14:22;;;;;;;9.25;3.17;;;;;;;;;;5074336;28;20431;-34
2023/08/17 07:16:49;;;;;;;8.75;2.92;;;;;;;;;;5073035;28;20021;-34
2023/08/17 07:19:16;;;;;;;7.60;3.08;;;;;;;;;;5074304;28;20051;-34
2023/08/17 07:21:43;;;;;;;9.93;3.30;;;;;;;;;;5074181;28;20068;-34
2023/08/17 07:24:14;;;;;;;7.68;3.15;;;;;;;;;;5074194;28;20087;-34
2023/08/17 07:26:41;;;;;;;8.45;3.17;;;;;;;;;;5074067;28;20506;-34
2023/08/17 07:29:08;;;;;;;10.02;3.50;;;;;;;;;;5074178;28;20450;-34
2023/08/17 07:31:37;;;;;;;13.38;3.72;;;;;;;;;;5074085;28;20140;-34
2023/08/17 07:34:05;;;;;;;11.48;3.30;;;;;;;;;;5073942;28;20040;-34
2023/08/17 07:36:32;;;;;;;8.95;3.50;;;;;;;;;;5073756;28;20048;-34
2023/08/17 07:38:59;;;;;;;10.73;3.33;;;;;;;;;;5073819;28;20494;-34
2023/08/17 07:41:27;;;;;;;7.70;3.20;;;;;;;;;;5072615;28;20033;-34
2023/08/17 07:43:54;;;;;;;7.95;2.97;;;;;;;;;;5073739;28;20535;-34
2023/08/17 07:46:21;;;;;;;9.98;3.40;;;;;;;;;;5073683;28;20162;-34
2023/08/17 07:48:48;;;;;;;10.30;3.55;;;;;;;;;;5073710;28;20025;-34
2023/08/17 07:51:15;;;;;;;11.88;3.30;;;;;;;;;;5073711;28;20129;-34
2023/08/17 07:53:43;;;;;;;7.72;3.00;;;;;;;;;;5073648;28;20031;-35
2023/08/17 07:56:09;;;;;;;12.57;3.38;;;;;;;;;;5073470;28;20394;-34
2023/08/17 07:58:36;;;;;;;9.88;3.22;;;;;;;;;;5073492;28;20032;-34
2023/08/17 08:01:03;;;;;;;8.48;3.20;;;;;;;;;;5073532;28;20471;-34
2023/08/17 08:03:30;;;;;;;9.52;3.50;;;;;;;;;;5073537;28;20036;-34
2023/08/17 08:05:57;;;;;;;11.27;4.00;;;;;;;;;;5073275;28;20099;-34
2023/08/17 08:08:24;;;;;;;12.07;3.67;;;;;;;;;;5073326;28;20036;-34
2023/08/17 08:10:54;;;;;;;10.82;3.58;;;;;;;;;;5073243;28;20449;-34
2023/08/17 08:13:21;;;;;;;11.65;3.63;;;;;;;;;;5073252;28;20064;-34
2023/08/17 08:15:48;;;;;;;9.57;3.42;;;;;;;;;;5073132;28;20174;-34
2023/08/17 08:18:16;;;;;;;10.95;3.90;;;;;;;;;;5073041;28;20036;-34
2023/08/17 08:20:43;;;;;;;10.73;3.55;;;;;;;;;;5073070;28;20028;-34
2023/08/17 08:23:11;;;;;;;5.93;2.88;;;;;;;;;;5073118;28;20090;-34
2023/08/17 08:25:38;;;;;;;7.15;3.22;;;;;;;;;;5072920;28;20028;-34
2023/08/17 08:28:05;;;;;;;9.10;3.35;;;;;;;;;;5071431;28;20393;-34
2023/08/17 08:30:32;;;;;;;12.60;4.40;;;;;;;;;;5072822;28;20021;-34
2023/08/17 08:32:59;;;;;;;8.90;3.38;;;;;;;;;;5072738;28;20447;-34
2023/08/17 08:35:27;;;;;;;9.32;3.38;;;;;;;;;;5072472;28;20020;-34
2023/08/17 08:37:55;;;;;;;12.95;4.40;;;;;;;;;;5072726;28;20035;-34
2023/08/17 08:40:27;;;;;;;10.75;3.42;;;;;;;;;;5072712;28;20401;-34
2023/08/17 08:42:54;;;;;;;14.50;3.72;;;;;;;;;;5072676;28;20044;-34
2023/08/17 08:45:22;;;;;;;10.60;3.42;;;;;;;;;;5072467;28;20029;-34
2023/08/17 08:47:50;;;;;;;11.13;3.72;;;;;;;;;;5072560;28;20482;-34
2023/08/17 08:50:20;;;;;;;9.32;3.60;;;;;;;;;;5072582;28;20073;-34
2023/08/17 08:52:52;;;;;;;10.73;3.10;;;;;;;;;;5072420;28;20466;-34
2023/08/17 08:55:18;;;;;;;;;;;;;;;;;;5072664;28;20028;-34
2023/08/17 08:57:49;;;;;;;10.25;3.60;;;;;;;;;;5072284;28;19961;-34
2023/08/17 09:00:16;;;;;;;9.55;3.10;;;;;;;;;;5072304;28;20029;-34
2023/08/17 09:02:43;;;;;;;11.88;3.38;;;;;;;;;;5072309;28;20021;-34
2023/08/17 09:05:11;;;;;;;9.30;3.15;;;;;;;;;;5068512;28;20035;-34
2023/08/17 09:07:39;;;;;;;10.52;3.35;;;;;;;;;;5052221;28;20131;-34
2023/08/17 09:10:06;;;;;;;9.13;2.92;;;;;;;;;;5057420;28;20418;-35
2023/08/17 09:12:33;;;;;;;10.55;3.50;;;;;;;;;;5069602;28;20113;-34
2023/08/17 09:15:00;;;;;;;9.32;3.28;;;;;;;;;;5071966;28;20028;-34
2023/08/17 09:17:28;;;;;;;9.65;2.90;;;;;;;;;;5058337;28;20156;-34
2023/08/17 09:19:55;;;;;;;9.77;3.50;;;;;;;;;;5051999;28;20017;-34
2023/08/17 09:22:25;;;;;;;10.10;3.50;;;;;;;;;;5054425;28;20033;-34
2023/08/17 09:24:52;;;;;;;9.40;3.30;;;;;;;;;;5051870;28;20130;-34
2023/08/17 09:27:21;;;;;;;9.13;3.40;;;;;;;;;;5056757;28;20016;-35
2023/08/17 09:29:48;;;;;;;9.63;3.00;;;;;;;;;;5056857;28;20044;-35
2023/08/17 09:32:16;;;;;;;8.75;3.17;;;;;;;;;;5061646;28;20473;-34
2023/08/17 09:34:44;;;;;;;9.27;3.05;;;;;;;;;;5061176;28;20028;-36
2023/08/17 09:37:13;;;;;;;9.60;3.55;;;;;;;;;;5060748;28;20041;-34
2023/08/17 09:39:40;;;;;;;13.23;3.55;;;;;;;;;;5068797;28;20020;-35
2023/08/17 09:42:07;;;;;;;9.68;3.15;;;;;;;;;;5071627;28;20035;-35
2023/08/17 09:44:35;;;;;;;10.48;3.47;;;;;;;;;;5071603;28;20029;-36
2023/08/17 09:47:02;;;;;;;9.32;3.28;;;;;;;;;;5071605;28;20013;-35
2023/08/17 09:49:32;;;;;;;12.13;3.67;;;;;;;;;;5071640;28;20036;-35
2023/08/17 09:52:02;;;;;;;10.38;3.40;;;;;;;;;;5071594;28;20029;-35
2023/08/17 09:54:31;;;;;;;10.93;3.83;;;;;;;;;;5071577;28;20079;-34
2023/08/17 09:57:02;;;;;;;12.50;3.55;;;;;;;;;;5071364;28;20056;-34
2023/08/17 09:59:29;;;;;;;9.52;3.42;;;;;;;;;;5071605;28;20031;-34
2023/08/17 10:01:57;;;;;;;8.73;3.60;;;;;;;;;;5070892;28;20041;-44
2023/08/17 10:04:24;;;;;;;13.27;3.80;;;;;;;;;;5062375;28;20036;-34
2023/08/17 10:06:55;;;;;;;11.50;3.67;;;;;;;;;;5069527;28;20524;-38
2023/08/17 10:09:25;;;;;;;17.15;4.03;;;;;;;;;;5071361;28;20164;-36
2023/08/17 10:11:53;;;;;;;12.55;3.53;;;;;;;;;;5071520;28;20030;-36
2023/08/17 10:14:23;;;;;;;15.40;3.53;;;;;;;;;;5071388;28;20029;-36
2023/08/17 10:16:59;;;;;;;13.10;3.83;;;;;;;;;;5069880;28;20033;-36
2023/08/17 10:19:51;;;;;;;13.75;3.80;;;;;;;;;;5071174;28;20033;-36
2023/08/17 10:22:24;;;;;;;11.02;3.90;;;;;;;;;;5071172;28;20118;-37
2023/08/17 10:24:52;;;;;;;11.40;3.33;;;;;;;;;;5070488;28;20119;-37
2023/08/17 10:27:22;;;;;;;11.68;3.42;;;;;;;;;;5069912;28;20109;-37
2023/08/17 10:29:49;;;;;;;12.45;3.63;;;;;;;;;;5070970;28;20386;-37
2023/08/17 10:32:17;;;;;;;13.20;3.90;;;;;;;;;;5070983;28;20031;-37
2023/08/17 10:34:44;;;;;;;15.10;4.35;;;;;;;;;;5071075;28;20054;-37
2023/08/17 10:37:12;;;;;;;10.73;3.70;;;;;;;;;;5068160;28;20074;-34
2023/08/17 10:39:46;;;;;;;14.50;3.97;;;;;;;;;;5050969;28;20520;-35
2023/08/17 10:42:14;;;;;;;14.18;3.50;;;;;;;;;;5057296;28;20177;-34
2023/08/17 10:44:41;;;;;;;14.15;4.18;;;;;;;;;;5057204;28;20483;-34
2023/08/17 10:47:27;;;;;;;12.65;3.80;;;;;;;;;;5061898;28;20029;-35
2023/08/17 10:49:58;;;;;;;11.40;3.90;;;;;;;;;;5055765;28;20029;-34
2023/08/17 10:52:32;;;;;;;13.15;4.20;;;;;;;;;;5051767;28;20112;-34
2023/08/17 10:55:06;;;;;;;14.93;3.33;;;;;;;;;;5059765;28;20028;-35
2023/08/17 10:57:34;;;;;;;12.48;4.13;;;;;;;;;;5054347;28;20029;-41
2023/08/17 11:00:19;;;;;;;14.73;4.03;;;;;;;;;;5053116;28;20432;-34
2023/08/17 11:02:58;;;;;;;11.73;3.95;;;;;;;;;;5054254;28;20438;-34
2023/08/17 11:05:38;;;;;;;14.68;4.70;;;;;;;;;;5052901;28;20029;-34
2023/08/17 11:08:09;;;;;;;14.70;4.55;;;;;;;;;;5053043;28;20142;-34
2023/08/17 11:10:38;;;;;;;15.45;4.78;;;;;;;;;;5051356;28;20049;-34
2023/08/17 11:13:05;;;;;;;12.10;4.53;;;;;;;;;;5052858;28;20103;-35
2023/08/17 11:15:38;;;;;;;13.95;4.63;;;;;;;;;;5052848;28;20479;-35
2023/08/17 11:18:07;;;;;;;12.68;4.43;;;;;;;;;;5052789;28;20083;-34
2023/08/17 11:20:35;;;;;;;15.10;4.43;;;;;;;;;;5051359;28;20506;-34
2023/08/17 11:23:02;;;;;;;12.88;4.55;;;;;;;;;;5052741;28;20029;-34
2023/08/17 11:25:29;;;;;;;11.25;4.10;;;;;;;;;;5052538;28;20017;-35
2023/08/17 11:27:56;;;;;;;18.98;4.22;;;;;;;;;;5052430;28;20103;-34
2023/08/17 11:30:25;;;;;;;16.30;3.63;;;;;;;;;;5057796;28;20028;-34
2023/08/17 11:32:52;;;;;;;12.63;4.40;;;;;;;;;;5073760;28;20049;-36
2023/08/17 11:35:19;;;;;;;15.68;3.80;;;;;;;;;;5073729;28;20037;-35
2023/08/17 11:37:46;;;;;;;14.25;4.22;;;;;;;;;;5072489;28;20473;-35
2023/08/17 11:40:13;;;;;;;11.50;4.10;;;;;;;;;;5073957;28;20040;-35
2023/08/17 11:42:40;;;;;;;10.40;3.33;;;;;;;;;;5071382;28;20474;-36
2023/08/17 11:45:11;;;;;;;10.35;3.50;;;;;;;;;;5058959;28;20112;-35
2023/08/17 11:47:41;;;;;;;10.13;3.53;;;;;;;;;;5058620;28;20425;-36
2023/08/17 11:50:12;;;;;;;9.70;3.33;;;;;;;;;;5073564;28;20589;-36
2023/08/17 11:52:39;;;;;;;9.95;3.72;;;;;;;;;;5073704;28;20028;-36
2023/08/17 11:55:07;;;;;;;9.00;3.65;;;;;;;;;;5073580;28;20028;-36
2023/08/17 11:57:34;;;;;;;11.50;3.90;;;;;;;;;;5073529;28;20025;-36
2023/08/17 12:00:03;;;;;;;11.98;3.72;;;;;;;;;;5067279;28;20033;-36
2023/08/17 12:02:31;;;;;;;12.95;3.75;;;;;;;;;;5056749;28;20029;-35
2023/08/17 12:04:58;;;;;;;16.40;3.30;;;;;;;;;;5053280;28;20099;-35
2023/08/17 12:07:25;;;;;;;12.77;3.67;;;;;;;;;;5053354;28;20025;-35
2023/08/17 12:09:52;;;;;;;9.48;3.42;;;;;;;;;;5052229;28;20025;-36
2023/08/17 12:12:27;;;;;;;11.57;3.83;;;;;;;;;;5056609;28;20021;-36
2023/08/17 12:14:55;;;;;;;11.38;3.70;;;;;;;;;;5052244;28;20371;-35
2023/08/17 12:17:22;;;;;;;8.90;2.90;;;;;;;;;;5053066;28;20040;-36
2023/08/17 12:19:56;;;;;;;10.48;3.40;;;;;;;;;;5053248;28;20047;-36
2023/08/17 12:22:26;;;;;;;10.25;3.38;;;;;;;;;;5061972;28;20040;-36
2023/08/17 12:24:53;;;;;;;10.10;3.28;;;;;;;;;;5060630;28;20025;-36
2023/08/17 12:27:23;;;;;;;12.20;3.33;;;;;;;;;;5068300;28;20120;-36
2023/08/17 12:29:51;;;;;;;12.02;3.25;;;;;;;;;;5072680;28;20470;-36
2023/08/17 12:32:19;;;;;;;9.77;2.95;;;;;;;;;;5068044;28;20025;-36
2023/08/17 12:34:47;;;;;;;11.57;3.05;;;;;;;;;;5069156;28;20024;-36
2023/08/17 12:37:19;;;;;;;11.68;3.13;;;;;;;;;;5060399;28;20131;-36
2023/08/17 12:39:46;;;;;;;;;;;;;;;;;;5055779;28;20113;-36
2023/08/17 12:42:18;;;;;;;16.15;3.50;;;;;;;;;;5052675;28;19908;-36
2023/08/17 12:44:45;;;;;;;8.97;2.80;;;;;;;;;;5052915;28;20474;-36
2023/08/17 12:47:12;;;;;;;12.38;3.15;;;;;;;;;;5052569;28;20029;-36
2023/08/17 12:49:39;;;;;;;7.25;3.22;;;;;;;;;;5052619;28;20025;-36
2023/08/17 12:52:06;;;;;;;7.65;2.65;;;;;;;;;;5052515;28;20092;-36
2023/08/17 12:54:33;;;;;;;13.32;3.30;;;;;;;;;;5052501;28;20025;-36
2023/08/17 12:57:01;;;;;;;9.73;3.30;;;;;;;;;;5052338;28;20063;-36
2023/08/17 12:59:28;;;;;;;13.93;3.30;;;;;;;;;;5052353;28;20060;-36
2023/08/17 13:01:55;;;;;;;7.75;2.72;;;;;;;;;;5052446;28;20510;-36
2023/08/17 13:04:22;;;;;;;6.35;2.80;;;;;;;;;;5052377;28;20029;-36
2023/08/17 13:06:50;;;;;;;9.40;2.92;;;;;;;;;;5052277;28;20495;-36
2023/08/17 13:09:18;;;;;;;8.70;2.85;;;;;;;;;;5052289;28;20025;-36
2023/08/17 13:11:46;;;;;;;9.50;3.40;;;;;;;;;;5052286;28;20043;-36
2023/08/17 13:14:16;;;;;;;7.13;2.85;;;;;;;;;;5050217;28;20056;-36
2023/08/17 13:16:43;;;;;;;9.60;2.70;;;;;;;;;;5051770;28;20024;-36
2023/08/17 13:19:10;;;;;;;6.47;2.40;;;;;;;;;;5052138;28;20543;-36
2023/08/17 13:21:37;;;;;;;7.30;2.50;;;;;;;;;;5052082;28;20100;-36
2023/08/17 13:24:04;;;;;;;7.85;2.88;;;;;;;;;;5052051;28;20804;-36
2023/08/17 13:26:31;;;;;;;8.40;2.50;;;;;;;;;;5051774;28;20029;-36
2023/08/17 13:28:58;;;;;;;7.85;2.72;;;;;;;;;;5051931;28;20025;-36
2023/08/17 13:31:25;;;;;;;8.20;2.25;;;;;;;;;;5051925;28;20086;-36
2023/08/17 13:33:52;;;;;;;5.75;2.45;;;;;;;;;;5051917;28;20032;-36
2023/08/17 13:36:19;;;;;;;7.07;2.67;;;;;;;;;;5051413;28;20407;-36
2023/08/17 13:38:46;;;;;;;6.50;2.25;;;;;;;;;;5051746;28;20044;-36
2023/08/17 13:41:14;;;;;;;5.32;2.38;;;;;;;;;;5051779;28;20406;-36
2023/08/17 13:43:41;;;;;;;5.43;2.28;;;;;;;;;;5051755;28;20013;-36
2023/08/17 13:46:08;;;;;;;9.48;2.30;;;;;;;;;;5051562;28;20094;-36
2023/08/17 13:48:35;;;;;;;5.55;2.00;;;;;;;;;;5051627;28;20510;-36
2023/08/17 13:51:02;;;;;;;6.10;2.33;;;;;;;;;;5051537;28;20029;-36
2023/08/17 13:53:29;;;;;;;5.82;2.10;;;;;;;;;;5051543;28;20033;-36
2023/08/17 13:55:56;;;;;;;4.97;1.98;;;;;;;;;;5051521;28;20021;-36
2023/08/17 13:58:23;;;;;;;4.30;2.00;;;;;;;;;;5051488;28;20495;-35
2023/08/17 14:00:50;;;;;;;4.65;2.15;;;;;;;;;;5050545;28;20660;-35
2023/08/17 14:03:17;;;;;;;4.63;2.30;;;;;;;;;;5051448;28;20483;-35
2023/08/17 14:05:44;;;;;;;6.45;2.20;;;;;;;;;;5051396;28;20090;-35
2023/08/17 14:08:11;;;;;;;3.72;2.00;;;;;;;;;;5051466;28;20064;-35
2023/08/17 14:10:38;;;;;;;4.05;1.70;;;;;;;;;;5051427;28;20028;-35
2023/08/17 14:13:05;;;;;;;4.97;1.83;;;;;;;;;;5051420;28;20086;-35
2023/08/17 14:15:32;;;;;;;4.70;1.92;;;;;;;;;;5051217;28;20078;-35
2023/08/17 14:17:59;;;;;;;3.83;1.92;;;;;;;;;;5051277;28;20108;-35
2023/08/17 14:20:26;;;;;;;5.40;2.00;;;;;;;;;;5051373;28;20048;-35
2023/08/17 14:22:53;;;;;;;3.85;1.77;;;;;;;;;;5051271;28;20459;-35
2023/08/17 14:25:20;;;;;;;5.13;1.98;;;;;;;;;;5051258;28;20029;-35
2023/08/17 14:27:48;;;;;;;3.97;1.90;;;;;;;;;;5054902;28;20028;-36
2023/08/17 14:30:15;;;;;;;3.80;1.83;;;;;;;;;;5055266;28;20027;-35
2023/08/17 14:32:42;;;;;;;3.28;1.77;;;;;;;;;;5055232;28;20564;-35
2023/08/17 14:35:09;;;;;;;5.07;1.75;;;;;;;;;;5055083;28;20021;-35
2023/08/17 14:37:36;;;;;;;2.97;1.40;;;;;;;;;;5054997;28;20544;-35
2023/08/17 14:40:03;;;;;;;3.80;1.75;;;;;;;;;;5055015;28;20052;-36